Weather Data

Pearl Creek Farm: 8878 N Farm Road 75, Walnut Grove MO 65770

<== Previous Day (Wednesday 02 Jan 2013) | Next Day (Friday 04 Jan 2013) ==>

Summary Precipitation Data For Thursday 03 January 2013

ElementValueUnits
Precipitation0"
New Snow Depth0"
New Snow Water Equivalent0"
Total Snow DepthT
Total Snow Water Equivalent*T
NotesFrost this morning. Small patches of snow continue to linger on the ground in bare patches and on some downed logs, but it's not enough to really measure. I'm not sure it got much above freezing yesterday, if at all, and today appears to be more of the same.
SourcePearl Creek Farm

* Total Snow Water Equivalent is not measured every day.

Summary Temperature Data For Thursday 03 January 2013

ElementValueUnits
High Temperature41 oF
Low Temperature19 oF
Average Temperature29 oF
High Humidity92 %
Low Humidity63 %
Average Humidity81 %
SourcePearl Creek Farm

Detail Temperature Data For Thursday 03 January 2013

Date / TimeTemp (F)RH (%)Dew Pt (F)Report Date / TimeSource
2013-01-03 00:00:00 25 84 20.7 2013-01-27 10:51:56 Pearl Creek Farm
2013-01-03 00:30:00 23 86 19.3 2013-01-27 10:51:56 Pearl Creek Farm
2013-01-03 01:00:00 23 85 19.0 2013-01-27 10:51:56 Pearl Creek Farm
2013-01-03 01:30:00 21 86 17.5 2013-01-27 10:51:56 Pearl Creek Farm
2013-01-03 02:00:00 20 87 16.8 2013-01-27 10:51:56 Pearl Creek Farm
2013-01-03 02:30:00 20 86 16.5 2013-01-27 10:51:56 Pearl Creek Farm
2013-01-03 03:00:00 19 87 15.7 2013-01-27 10:51:56 Pearl Creek Farm
2013-01-03 03:30:00 19 88 15.9 2013-01-27 10:51:56 Pearl Creek Farm
2013-01-03 04:00:00 20 88 16.9 2013-01-27 10:51:56 Pearl Creek Farm
2013-01-03 04:30:00 22 90 19.4 2013-01-27 10:51:56 Pearl Creek Farm
2013-01-03 05:00:00 24 90 21.5 2013-01-27 10:51:56 Pearl Creek Farm
2013-01-03 05:30:00 24 88 20.8 2013-01-27 10:51:56 Pearl Creek Farm
2013-01-03 06:00:00 21 87 17.8 2013-01-27 10:51:56 Pearl Creek Farm
2013-01-03 06:30:00 20 87 16.8 2013-01-27 10:51:56 Pearl Creek Farm
2013-01-03 07:00:00 20 86 16.5 2013-01-27 10:51:56 Pearl Creek Farm
2013-01-03 07:30:00 19 86 15.5 2013-01-27 10:51:56 Pearl Creek Farm
2013-01-03 08:00:00 19 87 15.8 2013-01-27 10:51:56 Pearl Creek Farm
2013-01-03 08:30:00 20 89 17.2 2013-01-27 10:51:56 Pearl Creek Farm
2013-01-03 09:00:00 23 92 20.9 2013-01-27 10:51:56 Pearl Creek Farm
2013-01-03 09:30:00 26 91 23.6 2013-01-27 10:51:56 Pearl Creek Farm
2013-01-03 10:00:00 28 89 25.1 2013-01-27 10:51:56 Pearl Creek Farm
2013-01-03 10:30:00 31 86 27.3 2013-01-27 10:51:56 Pearl Creek Farm
2013-01-03 11:00:00 33 83 28.3 2013-01-27 10:51:56 Pearl Creek Farm
2013-01-03 11:30:00 35 79 29.2 2013-01-27 10:51:56 Pearl Creek Farm
2013-01-03 12:00:00 37 72 28.8 2013-01-27 10:51:56 Pearl Creek Farm
2013-01-03 12:30:00 38 69 28.8 2013-01-27 10:51:56 Pearl Creek Farm
2013-01-03 13:00:00 39 68 29.2 2013-01-27 10:51:56 Pearl Creek Farm
2013-01-03 13:30:00 40 65 29.2 2013-01-27 10:51:56 Pearl Creek Farm
2013-01-03 14:00:00 40 65 29.2 2013-01-27 10:51:56 Pearl Creek Farm
2013-01-03 14:30:00 40 63 28.3 2013-01-27 10:51:56 Pearl Creek Farm
2013-01-03 15:00:00 41 63 29.4 2013-01-27 10:51:56 Pearl Creek Farm
2013-01-03 15:30:00 41 63 29.2 2013-01-27 10:51:56 Pearl Creek Farm
2013-01-03 16:00:00 40 63 28.3 2013-01-27 10:51:56 Pearl Creek Farm
2013-01-03 16:30:00 39 65 28.1 2013-01-27 10:51:56 Pearl Creek Farm
2013-01-03 17:00:00 36 71 27.4 2013-01-27 10:51:56 Pearl Creek Farm
2013-01-03 17:30:00 34 74 26.6 2013-01-27 10:51:56 Pearl Creek Farm
2013-01-03 18:00:00 32 78 25.9 2013-01-27 10:51:56 Pearl Creek Farm
2013-01-03 18:30:00 32 80 26.4 2013-01-27 10:51:56 Pearl Creek Farm
2013-01-03 19:00:00 31 82 26.2 2013-01-27 10:51:56 Pearl Creek Farm
2013-01-03 19:30:00 32 82 27.1 2013-01-27 10:51:56 Pearl Creek Farm
2013-01-03 20:00:00 32 82 27.0 2013-01-27 10:51:56 Pearl Creek Farm
2013-01-03 20:30:00 32 82 27.1 2013-01-27 10:51:56 Pearl Creek Farm
2013-01-03 21:00:00 31 82 26.2 2013-01-27 10:51:56 Pearl Creek Farm
2013-01-03 21:30:00 31 84 26.8 2013-01-27 10:51:56 Pearl Creek Farm
2013-01-03 22:00:00 32 82 27.1 2013-01-27 10:51:56 Pearl Creek Farm
2013-01-03 22:30:00 32 85 27.9 2013-01-27 10:51:56 Pearl Creek Farm
2013-01-03 23:00:00 32 85 28.0 2013-01-27 10:51:56 Pearl Creek Farm
2013-01-03 23:30:00 32 85 28.0 2013-01-27 10:51:56 Pearl Creek Farm

A total of 48 rows are displayed.